Time;durP1;ratioP1;P1;durP2;ratioP2;P2;SDS_P1;SDS_P2;PMS_P1;PMS_P2;Temp;Humidity;BMP_temperature;BMP_pressure;BME280_temperature;BME280_humidity;BME280_pressure;Samples;Min_cycle;Max_cycle;Signal;HPM_P1;HPM_P2
2023/09/25 00:00:31;;;;;;;5.03;4.53;;;;;;;23.16;45.95;102231.13;5060098;28;20610;-64
2023/09/25 00:02:59;;;;;;;3.85;3.55;;;;;;;23.16;45.88;102220.50;5059532;28;20036;-65
2023/09/25 00:05:25;;;;;;;3.72;3.42;;;;;;;23.15;45.92;102226.78;5070608;28;20075;-66
2023/09/25 00:07:51;;;;;;;3.03;2.60;;;;;;;23.17;45.98;102226.66;5075144;28;20047;-65
2023/09/25 00:10:16;;;;;;;5.10;3.83;;;;;;;23.15;45.92;102223.31;5074586;28;20036;-65
2023/09/25 00:12:42;;;;;;;3.47;3.15;;;;;;;23.13;45.95;102227.97;5072709;28;20472;-65
2023/09/25 00:15:08;;;;;;;3.60;3.28;;;;;;;23.13;45.71;102227.97;5075787;28;20043;-65
2023/09/25 00:17:35;;;;;;;3.80;3.05;;;;;;;23.17;45.71;102234.63;5076094;28;20036;-66
2023/09/25 00:20:00;;;;;;;4.82;3.60;;;;;;;23.11;46.04;102227.31;5074273;28;20280;-65
2023/09/25 00:22:26;;;;;;;4.95;3.80;;;;;;;23.15;45.86;102233.94;5072748;28;20413;-67
2023/09/25 00:24:51;;;;;;;4.32;3.90;;;;;;;23.12;45.86;102237.75;5078996;28;20126;-66
2023/09/25 00:27:17;;;;;;;4.95;3.72;;;;;;;23.11;45.92;102232.63;5081310;28;20058;-66
2023/09/25 00:29:42;;;;;;;4.55;3.80;;;;;;;23.11;45.81;102230.78;5073585;28;20052;-66
2023/09/25 00:32:08;;;;;;;4.18;3.83;;;;;;;23.13;45.96;102227.97;5087457;28;20052;-66
2023/09/25 00:34:33;;;;;;;4.05;3.60;;;;;;;23.11;45.89;102224.66;5076745;28;20047;-66
2023/09/25 00:36:59;;;;;;;3.38;3.08;;;;;;;23.11;45.85;102228.13;5077455;28;20402;-66
2023/09/25 00:39:25;;;;;;;3.80;3.35;;;;;;;23.11;45.58;102229.97;5076780;28;20093;-66
2023/09/25 00:41:50;;;;;;;5.90;3.78;;;;;;;23.08;46.07;102238.28;5075985;28;20041;-66
2023/09/25 00:44:16;;;;;;;3.75;3.38;;;;;;;23.06;45.83;102233.13;5078117;28;20046;-66
2023/09/25 00:46:44;;;;;;;3.28;2.95;;;;;;;23.08;45.98;102236.44;5072012;28;20060;-66
2023/09/25 00:49:10;;;;;;;4.68;3.72;;;;;;;23.07;45.85;102237.44;5078369;28;20486;-66
2023/09/25 00:51:37;;;;;;;3.78;3.40;;;;;;;23.05;45.89;102227.97;5082376;28;20032;-65
2023/09/25 00:54:03;;;;;;;4.80;3.65;;;;;;;23.11;45.60;102241.41;5079436;28;20043;-65
2023/09/25 00:56:28;;;;;;;3.88;3.55;;;;;;;23.10;45.67;102242.41;5076208;28;20040;-65
2023/09/25 00:58:54;;;;;;;4.13;3.60;;;;;;;23.09;45.78;102251.38;5078070;28;20048;-65
2023/09/25 01:01:20;;;;;;;3.65;3.08;;;;;;;23.09;45.66;102245.25;5077873;28;20078;-66
2023/09/25 01:03:46;;;;;;;4.15;3.75;;;;;;;23.08;45.58;102246.25;5071371;28;20046;-66
2023/09/25 01:06:12;;;;;;;4.80;3.65;;;;;;;23.05;45.66;102238.63;5080613;28;20062;-66
2023/09/25 01:08:37;;;;;;;4.78;3.40;;;;;;;23.06;45.64;102241.09;5080111;28;20071;-66
2023/09/25 01:11:03;;;;;;;3.22;2.92;;;;;;;23.08;45.68;102239.09;5071198;28;20040;-65
2023/09/25 01:13:30;;;;;;;4.70;3.60;;;;;;;23.09;45.71;102240.75;5076218;28;20859;-66
2023/09/25 01:15:56;;;;;;;3.75;3.22;;;;;;;23.09;45.77;102246.06;5077524;28;20541;-66
2023/09/25 01:18:22;;;;;;;4.47;2.97;;;;;;;23.07;45.77;102245.41;5076082;28;20044;-67
2023/09/25 01:20:47;;;;;;;3.58;3.10;;;;;;;23.04;45.50;102237.78;5076067;28;20047;-66
2023/09/25 01:23:13;;;;;;;3.38;3.08;;;;;;;23.08;45.65;102233.78;5063075;28;20162;-66
2023/09/25 01:25:38;;;;;;;3.55;3.25;;;;;;;23.08;45.57;102233.78;5079544;28;20036;-66
2023/09/25 01:28:04;;;;;;;2.53;2.33;;;;;;;22.99;45.43;102226.84;5077249;28;20073;-66
2023/09/25 01:30:31;;;;;;;3.80;2.97;;;;;;;23.04;45.59;102227.16;5076137;28;20052;-66
2023/09/25 01:32:57;;;;;;;3.45;3.15;;;;;;;23.03;45.59;102224.66;5075781;28;20071;-66
2023/09/25 01:35:25;;;;;;;3.22;2.92;;;;;;;23.07;45.42;102228.66;5077199;28;20044;-67
2023/09/25 01:37:55;;;;;;;6.32;3.28;;;;;;;23.06;45.57;102227.00;5077168;28;20456;-66
2023/09/25 01:40:21;;;;;;;4.40;3.13;;;;;;;23.05;45.54;102222.66;5078879;28;20043;-65
2023/09/25 01:42:47;;;;;;;2.95;2.65;;;;;;;23.03;45.35;102222.84;5077785;28;21419;-66
2023/09/25 01:45:19;;;;;;;3.45;3.05;;;;;;;23.04;45.49;102221.84;5071943;28;20074;-66
2023/09/25 01:47:50;;;;;;;5.40;3.83;;;;;;;23.05;45.37;102222.66;5072374;28;20032;-67
2023/09/25 01:50:23;;;;;;;3.33;3.03;;;;;;;23.05;45.33;102220.00;5087887;28;20131;-66
2023/09/25 01:53:07;;;;;;;4.20;3.80;;;;;;;23.03;45.59;102217.53;5071628;28;20486;-66
2023/09/25 01:55:36;;;;;;;4.15;3.72;;;;;;;23.06;45.50;102216.34;5070261;28;20147;-67
2023/09/25 01:58:03;;;;;;;4.55;4.15;;;;;;;23.02;45.50;102220.34;5088429;28;20032;-66
2023/09/25 02:00:29;;;;;;;4.07;3.65;;;;;;;23.05;45.19;102212.88;5074436;28;20536;-66
2023/09/25 02:02:54;;;;;;;4.65;3.53;;;;;;;23.04;45.32;102213.88;5069359;28;20052;-66
2023/09/25 02:05:20;;;;;;;4.32;3.53;;;;;;;23.05;45.24;102210.22;5073609;28;20097;-66
2023/09/25 02:07:45;;;;;;;3.78;3.35;;;;;;;23.04;45.21;102208.56;5080251;28;20164;-66
2023/09/25 02:10:11;;;;;;;4.40;3.47;;;;;;;23.03;45.27;102208.72;5080402;28;20032;-66
2023/09/25 02:12:37;;;;;;;3.90;3.53;;;;;;;23.05;45.32;102204.06;5087514;28;20116;-66
2023/09/25 02:15:05;;;;;;;4.10;3.70;;;;;;;23.02;45.15;102204.41;5074912;28;20490;-66
2023/09/25 02:17:32;;;;;;;4.07;3.70;;;;;;;23.02;45.22;102202.59;5076165;28;20034;-66
2023/09/25 02:22:54;;;;;;;3.75;3.40;;;;;;;23.01;45.17;102192.97;5065847;28;20143;-66
2023/09/25 02:25:20;;;;;;;4.53;4.07;;;;;;;23.01;45.06;102192.13;5073410;28;20035;-66
2023/09/25 02:27:46;;;;;;;4.28;3.88;;;;;;;23.00;44.91;102193.13;5086583;28;20398;-66
2023/09/25 02:30:13;;;;;;;4.00;3.55;;;;;;;23.00;45.08;102188.66;5073718;28;20167;-66
2023/09/25 02:32:41;;;;;;;4.15;3.65;;;;;;;23.01;44.96;102192.13;5076508;28;20048;-66
2023/09/25 02:35:07;;;;;;;3.80;3.45;;;;;;;22.98;44.96;102189.78;5077129;28;20482;-66
2023/09/25 02:37:33;;;;;;;3.53;2.90;;;;;;;22.99;45.14;102192.31;5079980;28;20027;-66
2023/09/25 02:39:59;;;;;;;3.20;2.67;;;;;;;22.99;45.09;102187.00;5080234;28;20036;-65
2023/09/25 02:42:24;;;;;;;3.45;3.13;;;;;;;22.98;44.93;102189.78;5074770;28;20074;-66
2023/09/25 02:44:51;;;;;;;3.22;2.92;;;;;;;22.99;45.24;102192.31;5073840;28;20040;-67
2023/09/25 02:47:17;;;;;;;3.38;3.08;;;;;;;22.97;45.04;102183.66;5063834;28;20048;-65
2023/09/25 02:49:42;;;;;;;3.83;3.50;;;;;;;23.00;45.08;102186.00;5066604;28;20040;-66
2023/09/25 02:52:08;;;;;;;4.90;4.10;;;;;;;22.97;45.01;102182.81;5063842;28;20035;-66
2023/09/25 02:54:33;;;;;;;4.20;3.65;;;;;;;23.01;44.90;102190.31;5058075;28;20035;-65
2023/09/25 02:56:59;;;;;;;4.10;3.63;;;;;;;22.93;44.74;102190.28;5058398;28;20024;-66
2023/09/25 02:59:25;;;;;;;4.65;3.65;;;;;;;22.95;44.72;102190.94;5063165;28;20051;-65
2023/09/25 03:01:50;;;;;;;4.65;4.10;;;;;;;22.89;44.85;102181.00;5061083;28;20047;-65
2023/09/25 03:04:16;;;;;;;4.30;3.78;;;;;;;22.87;44.79;102173.22;5061080;28;20043;-65
2023/09/25 03:06:41;;;;;;;4.35;3.90;;;;;;;22.96;44.92;102199.75;5063859;28;20040;-65
2023/09/25 03:09:07;;;;;;;4.00;3.60;;;;;;;22.93;44.98;102184.97;5074989;28;20070;-66
2023/09/25 03:11:33;;;;;;;3.88;3.25;;;;;;;22.94;45.03;102188.47;5068002;28;20039;-65
2023/09/25 03:13:58;;;;;;;4.03;3.63;;;;;;;22.92;44.69;102185.97;5068997;28;20113;-66
2023/09/25 03:16:24;;;;;;;5.03;3.83;;;;;;;22.96;44.99;102186.47;5066560;28;20032;-66
2023/09/25 03:18:50;;;;;;;4.32;3.88;;;;;;;22.92;44.84;102180.66;5070581;28;21833;-66
2023/09/25 03:21:17;;;;;;;4.13;3.72;;;;;;;22.91;44.84;102189.63;5062842;28;20032;-66
2023/09/25 03:23:42;;;;;;;6.53;3.90;;;;;;;22.94;45.10;102188.47;5065820;28;20036;-65
2023/09/25 03:26:19;;;;;;;4.43;4.03;;;;;;;22.94;45.12;102185.81;5063165;28;20442;-66
2023/09/25 03:28:46;;;;;;;4.25;3.42;;;;;;;22.92;44.84;102175.34;5066770;28;20960;-65
2023/09/25 03:31:12;;;;;;;4.55;3.90;;;;;;;22.87;45.14;102177.69;5085191;28;20585;-65
2023/09/25 03:33:39;;;;;;;3.60;3.30;;;;;;;22.91;44.90;102182.50;5063150;28;20031;-66
2023/09/25 03:36:05;;;;;;;6.03;4.10;;;;;;;22.87;45.03;102173.22;5075305;28;20051;-66
2023/09/25 03:38:31;;;;;;;4.65;4.25;;;;;;;22.89;44.80;102181.84;5072462;28;20486;-66
2023/09/25 03:40:57;;;;;;;4.53;3.70;;;;;;;22.90;44.91;102178.19;5072044;28;20519;-65
2023/09/25 03:43:22;;;;;;;3.47;3.17;;;;;;;22.93;44.73;102166.38;5076154;28;20036;-66
2023/09/25 03:45:48;;;;;;;3.67;3.38;;;;;;;22.87;45.06;102165.25;5075156;28;20071;-66
2023/09/25 03:48:14;;;;;;;3.60;3.30;;;;;;;22.87;45.03;102170.56;5076711;28;20071;-66
2023/09/25 03:50:40;;;;;;;5.10;4.05;;;;;;;22.91;44.99;102163.06;5072843;28;20040;-66
2023/09/25 03:53:05;;;;;;;2.58;2.28;;;;;;;22.86;44.66;102171.56;5069279;28;20052;-66
2023/09/25 03:55:31;;;;;;;4.10;3.20;;;;;;;22.91;45.06;102163.06;5072314;28;20093;-66
2023/09/25 03:57:57;;;;;;;3.72;3.33;;;;;;;22.95;44.53;102166.22;5063571;28;20039;-66
2023/09/25 04:00:23;;;;;;;4.10;3.55;;;;;;;22.89;44.85;102165.06;5064981;28;20043;-66
2023/09/25 04:02:48;;;;;;;3.33;3.03;;;;;;;22.86;44.78;102157.44;5069939;28;20048;-66
2023/09/25 04:05:14;;;;;;;4.18;3.78;;;;;;;22.88;44.78;102164.25;5072928;28;20044;-65
2023/09/25 04:07:40;;;;;;;4.10;3.50;;;;;;;22.87;45.18;102169.72;5059176;28;20123;-65
2023/09/25 04:10:07;;;;;;;3.92;3.58;;;;;;;22.91;44.76;102173.69;5063442;28;20037;-65
2023/09/25 04:12:34;;;;;;;4.20;3.80;;;;;;;22.85;44.83;102172.56;5062978;28;20765;-65
2023/09/25 04:15:00;;;;;;;4.60;3.95;;;;;;;22.88;44.92;102172.22;5066741;28;21811;-64
2023/09/25 04:17:27;;;;;;;3.85;3.53;;;;;;;22.89;44.43;102171.22;5063455;28;20096;-65
2023/09/25 04:19:53;;;;;;;4.13;3.72;;;;;;;22.86;44.73;102176.03;5067344;28;20130;-65
2023/09/25 04:22:20;;;;;;;5.55;3.75;;;;;;;22.86;44.53;102170.72;5066776;28;20032;-65
2023/09/25 04:24:46;;;;;;;4.18;3.47;;;;;;;22.85;44.83;102175.22;5070135;28;20494;-64
2023/09/25 04:27:11;;;;;;;3.97;3.60;;;;;;;22.86;44.70;102170.72;5073071;28;20040;-65
2023/09/25 04:29:38;;;;;;;4.20;3.63;;;;;;;22.81;44.77;102160.56;5074154;28;20184;-65
2023/09/25 04:32:04;;;;;;;3.67;3.35;;;;;;;22.88;44.34;102168.72;5071071;28;20124;-65
2023/09/25 04:34:30;;;;;;;5.15;3.85;;;;;;;22.86;44.61;102165.41;5072086;28;20044;-65
2023/09/25 04:36:58;;;;;;;4.88;4.00;;;;;;;22.85;44.48;102169.06;5073222;28;20036;-65
2023/09/25 04:39:24;;;;;;;4.63;3.70;;;;;;;22.83;44.67;102165.75;5087942;28;20047;-65
2023/09/25 04:41:50;;;;;;;4.35;3.85;;;;;;;22.83;44.69;102171.06;5071680;28;20048;-65
2023/09/25 04:44:15;;;;;;;3.80;2.58;;;;;;;22.80;44.49;102169.53;5077345;28;20557;-65
2023/09/25 04:46:41;;;;;;;4.43;3.45;;;;;;;22.71;44.83;102145.81;5076615;28;20039;-64
2023/09/25 04:49:07;;;;;;;3.55;2.95;;;;;;;22.79;44.49;102159.06;5079522;28;20034;-65
2023/09/25 04:51:33;;;;;;;3.35;3.05;;;;;;;22.82;44.46;102170.22;5074983;28;20043;-65
2023/09/25 04:54:00;;;;;;;3.28;2.97;;;;;;;;;;5079027;28;20047;-64
2023/09/25 04:56:27;;;;;;;6.22;3.63;;;;;;;22.79;44.42;102169.69;5074684;28;20036;-64
2023/09/25 04:58:53;;;;;;;3.85;3.45;;;;;;;22.81;44.69;102163.22;5073219;28;20044;-64
2023/09/25 05:01:19;;;;;;;3.65;3.33;;;;;;;22.80;44.44;102163.38;5076248;28;20063;-65
2023/09/25 05:03:45;;;;;;;4.30;3.90;;;;;;;22.80;44.50;102168.69;5075006;28;20082;-65
2023/09/25 05:06:11;;;;;;;4.95;4.03;;;;;;;22.79;44.40;102167.03;5076332;28;20036;-66
2023/09/25 05:08:38;;;;;;;4.57;4.15;;;;;;;22.77;44.42;102159.22;5082394;28;20115;-67
2023/09/25 05:11:05;;;;;;;4.63;4.03;;;;;;;22.78;44.49;102173.34;5076605;28;20120;-65
2023/09/25 05:13:32;;;;;;;4.45;4.05;;;;;;;22.76;44.40;102178.00;5074408;28;20734;-65
2023/09/25 05:15:57;;;;;;;4.45;4.05;;;;;;;22.76;44.52;102178.00;5076006;28;20050;-65
2023/09/25 05:18:23;;;;;;;4.88;4.20;;;;;;;22.77;44.32;102183.13;5077601;28;20489;-65
2023/09/25 05:20:48;;;;;;;4.28;3.88;;;;;;;22.78;44.32;102178.66;5077132;28;20478;-65
2023/09/25 05:23:14;;;;;;;4.85;4.38;;;;;;;22.77;44.32;102190.25;5073736;28;20956;-65
2023/09/25 05:25:39;;;;;;;4.32;3.75;;;;;;;22.78;44.53;102191.94;5076623;28;20073;-65
2023/09/25 05:28:05;;;;;;;6.00;4.78;;;;;;;22.74;44.64;102194.09;5076722;28;20709;-65
2023/09/25 05:30:30;;;;;;;4.90;4.25;;;;;;;22.75;44.40;102200.22;5078608;28;20048;-65
2023/09/25 05:32:56;;;;;;;5.15;4.47;;;;;;;22.76;44.27;102196.56;5074457;28;20670;-65
2023/09/25 05:35:22;;;;;;;5.07;3.90;;;;;;;22.76;44.50;102200.06;5077514;28;20478;-65
2023/09/25 05:37:48;;;;;;;4.55;4.15;;;;;;;22.74;44.34;102194.09;5075429;28;20036;-65
2023/09/25 05:40:15;;;;;;;5.55;4.25;;;;;;;22.79;44.52;102198.91;5076391;28;20050;-65
2023/09/25 05:42:43;;;;;;;5.10;3.70;;;;;;;22.76;44.66;102202.72;5071354;28;20136;-65
2023/09/25 05:45:10;;;;;;;6.43;4.43;;;;;;;22.75;44.38;102202.88;5080266;28;20470;-65
2023/09/25 05:47:36;;;;;;;5.05;3.88;;;;;;;22.77;44.35;102201.72;5078304;28;20438;-65
2023/09/25 05:50:02;;;;;;;5.22;4.40;;;;;;;22.68;44.45;102189.44;5076565;28;20058;-65
2023/09/25 05:52:29;;;;;;;4.78;4.30;;;;;;;22.73;44.83;102195.09;5075699;28;20698;-64
2023/09/25 05:54:55;;;;;;;5.95;4.45;;;;;;;22.74;44.49;102190.59;5059575;28;20032;-64
2023/09/25 05:57:20;;;;;;;6.55;4.70;;;;;;;22.75;44.41;102195.75;5073659;28;20040;-65
2023/09/25 05:59:46;;;;;;;6.03;4.88;;;;;;;22.74;44.41;102196.75;5055677;28;20159;-65
2023/09/25 06:02:11;;;;;;;5.32;4.45;;;;;;;22.74;44.33;102199.41;5069847;28;20047;-65
2023/09/25 06:04:37;;;;;;;6.35;4.25;;;;;;;22.74;44.52;102194.09;5072973;28;20048;-65
2023/09/25 06:07:03;;;;;;;4.97;4.45;;;;;;;22.75;44.37;102195.75;5069183;28;20414;-64
2023/09/25 06:09:30;;;;;;;4.50;4.05;;;;;;;22.73;44.37;102192.44;5075415;28;20472;-64
2023/09/25 06:11:57;;;;;;;5.22;4.60;;;;;;;22.74;44.44;102196.75;5074199;28;20047;-64
2023/09/25 06:14:23;;;;;;;5.15;4.47;;;;;;;22.70;44.24;102194.59;5080857;28;20040;-65
2023/09/25 06:16:50;;;;;;;5.82;4.63;;;;;;;22.73;44.61;102207.53;5069839;28;20645;-64
2023/09/25 06:19:18;;;;;;;5.15;4.63;;;;;;;22.73;44.39;102203.06;5065966;28;20040;-64
2023/09/25 06:21:44;;;;;;;6.57;5.13;;;;;;;22.73;44.57;102204.88;5077641;28;20044;-64
2023/09/25 06:24:11;;;;;;;5.72;4.50;;;;;;;22.75;44.43;102210.84;5075394;28;20048;-64
2023/09/25 06:26:39;;;;;;;5.90;4.45;;;;;;;22.73;44.43;102207.53;5075471;28;20070;-65
2023/09/25 06:29:06;;;;;;;5.60;4.50;;;;;;;22.72;44.29;102198.75;5073974;28;20044;-65
2023/09/25 06:31:32;;;;;;;5.38;4.40;;;;;;;22.78;44.09;102207.84;5074961;28;20063;-64
2023/09/25 06:33:57;;;;;;;4.88;4.20;;;;;;;22.77;44.11;102208.84;5074900;28;20063;-65
2023/09/25 06:36:23;;;;;;;5.28;4.45;;;;;;;22.75;44.19;102206.38;5079343;28;20070;-65
2023/09/25 06:38:48;;;;;;;5.13;4.13;;;;;;;22.78;44.13;102211.34;5075016;28;20265;-65
2023/09/25 06:41:14;;;;;;;6.55;4.38;;;;;;;22.77;44.04;102216.81;5078371;28;20044;-65
2023/09/25 06:43:39;;;;;;;8.60;4.70;;;;;;;22.76;44.37;102212.50;5072995;28;20032;-66
2023/09/25 06:46:05;;;;;;;6.70;4.53;;;;;;;22.73;44.52;102213.69;5073083;28;20043;-65
2023/09/25 06:48:32;;;;;;;6.10;5.15;;;;;;;22.74;44.09;102215.34;5073623;28;20606;-64
2023/09/25 06:50:58;;;;;;;6.50;4.95;;;;;;;22.75;44.15;102221.47;5075503;28;20035;-65
2023/09/25 06:53:23;;;;;;;5.45;4.45;;;;;;;22.73;43.94;102220.81;5071504;28;20044;-64
2023/09/25 06:55:49;;;;;;;5.63;4.95;;;;;;;22.76;44.10;102223.13;5073980;28;20413;-65
2023/09/25 06:58:14;;;;;;;5.22;4.60;;;;;;;22.76;43.88;102213.34;5073036;28;20064;-65
2023/09/25 07:00:40;;;;;;;5.30;4.40;;;;;;;22.72;44.15;102219.97;5073488;28;20028;-65
2023/09/25 07:03:05;;;;;;;5.70;4.68;;;;;;;22.80;44.22;102221.81;5071533;28;20043;-64
2023/09/25 07:05:31;;;;;;;5.35;4.70;;;;;;;22.77;44.29;102208.84;5075432;28;20391;-65
2023/09/25 07:07:59;;;;;;;6.80;4.60;;;;;;;22.75;44.37;102214.34;5077123;28;20687;-65
2023/09/25 07:10:24;;;;;;;6.03;5.03;;;;;;;22.75;44.47;102217.00;5071370;28;20218;-65
2023/09/25 07:12:50;;;;;;;5.20;4.30;;;;;;;22.78;44.08;102210.50;5071021;28;20616;-64
2023/09/25 07:15:16;;;;;;;5.30;4.75;;;;;;;22.74;44.22;102214.50;5076026;28;20442;-64
2023/09/25 07:17:41;;;;;;;5.20;4.50;;;;;;;22.76;44.49;102212.50;5073798;28;20032;-65
2023/09/25 07:20:07;;;;;;;5.55;4.70;;;;;;;22.78;44.43;102213.16;5076455;28;20059;-65
2023/09/25 07:22:33;;;;;;;5.60;4.18;;;;;;;22.75;44.33;102217.00;5072699;28;20065;-65
2023/09/25 07:24:59;;;;;;;6.07;4.32;;;;;;;22.76;44.42;102221.31;5071809;28;20071;-66
2023/09/25 07:27:27;;;;;;;5.70;4.10;;;;;;;22.78;44.40;102227.28;5074569;28;20032;-67
2023/09/25 07:29:53;;;;;;;4.90;4.28;;;;;;;22.77;44.48;102222.13;5076141;28;20519;-66
2023/09/25 07:32:19;;;;;;;6.40;5.20;;;;;;;22.77;44.36;102217.66;5070045;28;20040;-65
2023/09/25 07:34:45;;;;;;;6.43;4.53;;;;;;;22.75;44.17;102218.81;5075304;28;20024;-65
2023/09/25 07:37:13;;;;;;;6.38;5.10;;;;;;;22.78;44.21;102218.47;5068524;28;20596;-65
2023/09/25 07:39:40;;;;;;;9.10;5.40;;;;;;;22.75;44.40;102218.81;5076584;28;20736;-64
2023/09/25 07:42:10;;;;;;;6.55;4.57;;;;;;;22.76;44.48;102207.19;5067113;28;20027;-64
2023/09/25 07:44:36;;;;;;;6.32;5.30;;;;;;;22.78;44.48;102206.03;5074810;28;20491;-65
2023/09/25 07:47:06;;;;;;;4.97;4.47;;;;;;;22.74;44.30;102207.38;5072679;28;20413;-65
2023/09/25 07:49:38;;;;;;;6.80;4.60;;;;;;;22.74;44.35;102198.56;5075395;28;20119;-64
2023/09/25 07:52:11;;;;;;;5.55;4.80;;;;;;;22.74;44.17;102203.88;5073222;28;20743;-64
2023/09/25 07:54:37;;;;;;;5.75;4.78;;;;;;;22.78;44.40;102211.34;5072056;28;20044;-65
2023/09/25 07:57:02;;;;;;;7.00;4.57;;;;;;;22.78;44.08;102207.84;5079673;28;20028;-64
2023/09/25 07:59:28;;;;;;;6.00;4.90;;;;;;;22.75;44.41;102208.19;5074923;28;20052;-65
2023/09/25 08:01:55;;;;;;;4.80;4.22;;;;;;;22.78;44.02;102219.31;5073637;28;20048;-64
2023/09/25 08:04:21;;;;;;;5.88;4.43;;;;;;;22.77;44.13;102215.00;5073401;28;20406;-64
2023/09/25 08:06:46;;;;;;;5.57;4.78;;;;;;;22.77;44.16;102204.38;5068777;28;20138;-65
2023/09/25 08:09:13;;;;;;;7.93;5.22;;;;;;;22.78;44.01;102200.72;5073033;28;20051;-64
2023/09/25 08:11:39;;;;;;;5.88;4.53;;;;;;;22.79;44.08;102205.03;5070042;28;20060;-65
2023/09/25 08:14:05;;;;;;;5.88;4.28;;;;;;;22.79;44.27;102207.69;5072209;28;20056;-65
2023/09/25 08:16:31;;;;;;;4.90;4.40;;;;;;;22.79;44.26;102213.00;5073737;28;20035;-64
2023/09/25 08:18:57;;;;;;;4.80;4.32;;;;;;;22.80;44.14;102204.06;5071317;28;20063;-65
2023/09/25 08:21:22;;;;;;;5.00;4.28;;;;;;;22.77;43.99;102200.88;5075575;28;20572;-64
2023/09/25 08:23:48;;;;;;;5.18;4.20;;;;;;;22.80;43.95;102212.03;5074229;28;20047;-65
2023/09/25 08:26:15;;;;;;;4.70;3.72;;;;;;;22.78;44.28;102200.72;5075658;28;20056;-64
2023/09/25 08:28:42;;;;;;;4.80;4.30;;;;;;;;;;5073247;28;20043;-64
2023/09/25 08:31:07;;;;;;;4.93;4.30;;;;;;;;;;5076685;28;20044;-64
2023/09/25 08:33:33;;;;;;;6.22;3.90;;;;;;;22.80;43.96;102208.53;5071109;28;20035;-64
2023/09/25 08:35:58;;;;;;;5.68;4.55;;;;;;;22.80;44.12;102203.22;5073771;28;20043;-65
2023/09/25 08:38:24;;;;;;;4.32;3.85;;;;;;;22.80;43.70;102201.41;5076940;28;20532;-65
2023/09/25 08:40:50;;;;;;;5.20;3.80;;;;;;;22.82;43.64;102204.75;5080477;28;20432;-64
2023/09/25 08:43:16;;;;;;;5.88;4.15;;;;;;;;;;5080333;28;20089;-65
2023/09/25 08:45:45;;;;;;;5.32;4.28;;;;;;;22.82;43.77;102210.06;5078809;28;20039;-67
2023/09/25 08:48:11;;;;;;;5.10;4.00;;;;;;;22.86;43.69;102208.75;5075346;28;20036;-66
2023/09/25 08:50:39;;;;;;;6.10;4.53;;;;;;;22.86;43.90;102210.56;5079691;28;20055;-66
2023/09/25 08:53:06;;;;;;;5.18;4.50;;;;;;;22.84;43.78;102205.41;5077365;28;20056;-66
2023/09/25 08:55:33;;;;;;;5.00;4.50;;;;;;;22.83;43.79;102214.38;5080908;28;20473;-66
2023/09/25 08:58:00;;;;;;;5.72;4.15;;;;;;;22.86;43.68;102215.88;5079590;28;20044;-67
2023/09/25 09:00:27;;;;;;;5.03;4.47;;;;;;;22.87;43.76;102214.88;5077119;28;20532;-67
2023/09/25 09:02:53;;;;;;;4.90;4.28;;;;;;;22.83;43.95;102209.06;5081091;28;20462;-66
2023/09/25 09:05:19;;;;;;;4.50;3.97;;;;;;;22.86;44.09;102194.63;5079951;28;20048;-65
2023/09/25 09:08:02;;;;;;;6.32;4.65;;;;;;;22.87;44.14;102201.59;5076941;28;20040;-66
2023/09/25 09:10:38;;;;;;;6.15;4.25;;;;;;;22.90;43.52;102198.59;5077531;28;20036;-66
2023/09/25 09:13:09;;;;;;;5.57;4.45;;;;;;;22.88;43.77;102196.13;5079876;28;20047;-66
2023/09/25 09:15:36;;;;;;;5.97;4.32;;;;;;;22.88;43.95;102195.28;5074898;28;20028;-66
2023/09/25 09:18:22;;;;;;;5.10;4.18;;;;;;;22.88;43.70;102198.78;5078793;28;20044;-66
2023/09/25 09:20:48;;;;;;;5.07;4.18;;;;;;;22.88;43.85;102196.13;5077761;28;20040;-66
2023/09/25 09:23:15;;;;;;;4.88;4.05;;;;;;;22.89;43.88;102195.13;5077012;28;20032;-66
2023/09/25 09:25:44;;;;;;;4.75;4.13;;;;;;;22.89;43.57;102192.47;5075210;28;20043;-65
2023/09/25 09:28:10;;;;;;;7.85;4.55;;;;;;;22.86;43.53;102187.50;5084344;28;20064;-66
2023/09/25 09:30:36;;;;;;;4.88;3.97;;;;;;;22.91;43.44;102186.97;5075543;28;20402;-66
2023/09/25 09:33:03;;;;;;;4.68;4.25;;;;;;;22.89;43.79;102181.00;5078058;28;20039;-66
2023/09/25 09:35:28;;;;;;;4.50;4.10;;;;;;;22.90;43.51;102183.50;5077550;28;20036;-66
2023/09/25 09:37:56;;;;;;;5.15;3.92;;;;;;;22.89;43.82;102178.34;5075456;28;20033;-66
2023/09/25 09:40:24;;;;;;;4.38;3.67;;;;;;;22.91;43.59;102177.19;5078223;28;20036;-65
2023/09/25 09:42:50;;;;;;;4.32;3.83;;;;;;;22.91;43.66;102181.66;5083668;28;20032;-65
2023/09/25 09:45:17;;;;;;;4.90;4.18;;;;;;;22.91;43.78;102186.97;5080292;28;20065;-65
2023/09/25 09:47:44;;;;;;;5.70;4.05;;;;;;;22.93;43.53;102190.28;5081072;28;20047;-66
2023/09/25 09:50:11;;;;;;;4.72;3.90;;;;;;;22.91;43.45;102186.97;5079249;28;20123;-64
2023/09/25 09:52:42;;;;;;;5.30;4.15;;;;;;;22.94;43.57;102185.81;5073270;28;20435;-64
2023/09/25 09:55:09;;;;;;;4.80;3.95;;;;;;;22.95;43.74;102184.81;5074499;28;20036;-64
2023/09/25 09:57:36;;;;;;;4.22;3.58;;;;;;;22.94;43.65;102183.16;5076618;28;20032;-65
2023/09/25 10:00:05;;;;;;;4.43;3.80;;;;;;;22.90;43.81;102180.84;5076124;28;20036;-65
2023/09/25 10:02:38;;;;;;;6.32;4.00;;;;;;;22.99;43.36;102187.00;5077394;28;20044;-65
2023/09/25 10:05:04;;;;;;;4.32;3.75;;;;;;;22.95;43.47;102201.56;5078011;28;20409;-65
2023/09/25 10:07:29;;;;;;;4.07;3.67;;;;;;;22.94;43.84;102199.91;5074760;28;20024;-67
2023/09/25 10:10:04;;;;;;;5.25;4.03;;;;;;;22.96;43.36;102203.22;5071969;28;20493;-66
2023/09/25 10:12:40;;;;;;;5.88;4.18;;;;;;;22.94;43.80;102202.56;5076658;28;20042;-66
2023/09/25 10:15:11;;;;;;;4.65;4.03;;;;;;;22.93;43.65;102203.56;5077925;28;20074;-66
2023/09/25 10:17:41;;;;;;;5.65;4.55;;;;;;;22.95;43.47;102206.91;5073511;28;20028;-66
2023/09/25 10:20:42;;;;;;;6.25;4.38;;;;;;;22.95;43.46;102195.44;5077125;28;20051;-66
2023/09/25 10:23:19;;;;;;;4.78;3.60;;;;;;;22.93;43.75;102200.91;5078666;28;20838;-65
2023/09/25 10:25:52;;;;;;;6.50;4.30;;;;;;;22.98;43.66;102208.38;5070864;28;20553;-65
2023/09/25 10:28:25;;;;;;;5.57;4.28;;;;;;;22.97;43.79;102210.22;5074654;28;20036;-66
2023/09/25 10:30:55;;;;;;;6.85;4.43;;;;;;;23.00;43.61;102206.41;5079589;28;20160;-65
2023/09/25 10:33:21;;;;;;;;;;;;;;;22.96;43.63;102211.22;5076746;28;20068;-66
2023/09/25 10:35:50;;;;;;;4.38;3.95;;;;;;;22.96;43.62;102224.50;5076328;28;19951;-66
2023/09/25 10:38:25;;;;;;;6.43;4.15;;;;;;;22.96;43.80;102221.84;5078092;28;20034;-65
2023/09/25 10:40:54;;;;;;;5.63;4.70;;;;;;;22.99;43.48;102218.03;5078175;28;20121;-65
2023/09/25 10:43:22;;;;;;;5.00;4.40;;;;;;;22.97;43.54;102231.47;5076723;28;20105;-65
2023/09/25 10:45:48;;;;;;;5.50;3.95;;;;;;;22.97;43.26;102236.78;5074722;28;20746;-66
2023/09/25 10:48:15;;;;;;;5.35;3.95;;;;;;;22.98;43.38;102235.81;5074900;28;20114;-65
2023/09/25 10:50:43;;;;;;;5.40;4.18;;;;;;;22.97;43.54;102239.44;5079193;28;20048;-66
2023/09/25 10:53:13;;;;;;;4.53;4.03;;;;;;;22.98;43.47;102235.81;5076057;28;20092;-66
2023/09/25 10:55:39;;;;;;;4.57;3.72;;;;;;;23.02;43.49;102241.59;5077093;28;20032;-66
2023/09/25 10:58:06;;;;;;;4.47;3.97;;;;;;;22.99;43.64;102233.97;5075340;28;20080;-66
2023/09/25 11:00:34;;;;;;;5.28;4.15;;;;;;;22.98;43.60;102230.50;5078591;28;20036;-65
2023/09/25 11:03:01;;;;;;;4.97;4.13;;;;;;;22.98;43.19;102222.53;5074360;28;20528;-65
2023/09/25 11:05:29;;;;;;;6.00;4.28;;;;;;;23.02;43.36;102228.31;5080910;28;20044;-66
2023/09/25 11:07:55;;;;;;;5.57;4.47;;;;;;;23.02;43.51;102231.81;5075156;28;20040;-66
2023/09/25 11:10:21;;;;;;;4.72;3.58;;;;;;;23.00;43.51;102225.84;5078509;28;20048;-66
2023/09/25 11:12:47;;;;;;;4.90;4.38;;;;;;;23.00;43.38;102223.19;5073902;28;20583;-67
2023/09/25 11:15:22;;;;;;;4.80;3.95;;;;;;;23.02;43.21;102223.00;5076919;28;21424;-65
2023/09/25 11:17:48;;;;;;;3.20;2.67;;;;;;;23.02;43.31;102220.34;5068547;28;20044;-66
2023/09/25 11:20:18;;;;;;;5.20;3.72;;;;;;;23.05;43.58;102223.50;5072487;28;20078;-65
2023/09/25 11:22:46;;;;;;;4.40;3.90;;;;;;;23.02;43.43;102223.00;5073510;28;20108;-66
2023/09/25 11:25:16;;;;;;;4.00;3.38;;;;;;;23.04;43.41;102228.97;5074669;28;20678;-66
2023/09/25 11:27:53;;;;;;;4.85;3.95;;;;;;;23.03;43.42;102230.81;5089801;28;20113;-66